createdAt,value
2022-08-17T00:00:38.000Z,288.93
2022-08-17T00:02:57.000Z,288.9
2022-08-17T00:04:25.000Z,288.85
2022-08-17T00:06:31.000Z,288.81
2022-08-17T00:09:26.000Z,288.75
2022-08-17T00:10:52.000Z,288.75
2022-08-17T00:12:58.000Z,288.72
2022-08-17T00:14:25.000Z,288.71
2022-08-17T00:16:31.000Z,288.68
2022-08-17T00:18:23.000Z,288.64
2022-08-17T00:21:14.000Z,288.64
2022-08-17T00:22:40.000Z,288.63
2022-08-17T00:24:46.000Z,288.61
2022-08-17T00:26:13.000Z,288.58
2022-08-17T00:28:20.000Z,288.57
2022-08-17T00:29:47.000Z,288.53
2022-08-17T00:31:53.000Z,288.5
2022-08-17T00:33:19.000Z,288.47
2022-08-17T00:35:25.000Z,288.47
2022-08-17T00:36:52.000Z,288.45
2022-08-17T00:38:58.000Z,288.43
2022-08-17T00:40:25.000Z,288.39
2022-08-17T00:42:31.000Z,288.39
2022-08-17T00:43:57.000Z,288.38
2022-08-17T00:46:03.000Z,288.36
2022-08-17T00:48:55.000Z,288.32
2022-08-17T00:50:21.000Z,288.27
2022-08-17T00:52:27.000Z,288.2
2022-08-17T00:53:54.000Z,288.16
2022-08-17T00:56:00.000Z,288.16
2022-08-17T00:57:26.000Z,288.16
2022-08-17T00:59:32.000Z,288.13
2022-08-17T01:00:59.000Z,288.12
2022-08-17T01:03:05.000Z,288.09
2022-08-17T01:04:32.000Z,288.07
2022-08-17T01:06:38.000Z,288.05
2022-08-17T01:08:04.000Z,288.03
2022-08-17T01:10:10.000Z,288.03
2022-08-17T01:12:27.000Z,288.03
2022-08-17T01:16:32.000Z,287.96
2022-08-17T01:18:38.000Z,287.93
2022-08-17T01:20:05.000Z,287.89
2022-08-17T01:22:11.000Z,287.89
2022-08-17T01:23:37.000Z,287.89
2022-08-17T01:25:43.000Z,287.89
2022-08-17T01:28:39.000Z,287.89
2022-08-17T01:30:21.000Z,287.86
2022-08-17T01:33:05.000Z,287.88
2022-08-17T01:34:31.000Z,287.86
2022-08-17T01:36:48.000Z,287.85
2022-08-17T01:38:15.000Z,287.84
2022-08-17T01:40:21.000Z,287.84
2022-08-17T01:41:48.000Z,287.84
2022-08-17T01:43:54.000Z,287.81
2022-08-17T01:45:20.000Z,287.8
2022-08-17T01:47:26.000Z,287.77
2022-08-17T01:48:56.000Z,287.75
2022-08-17T01:51:02.000Z,287.73
2022-08-17T01:52:28.000Z,287.74
2022-08-17T01:54:34.000Z,287.73
2022-08-17T01:56:01.000Z,287.74
2022-08-17T01:58:07.000Z,287.73
2022-08-17T01:59:33.000Z,287.7
2022-08-17T02:01:40.000Z,287.68
2022-08-17T02:03:06.000Z,287.64
2022-08-17T02:05:12.000Z,287.63
2022-08-17T02:08:04.000Z,287.59
2022-08-17T02:09:32.000Z,287.57
2022-08-17T02:11:38.000Z,287.56
2022-08-17T02:13:04.000Z,287.52
2022-08-17T02:15:10.000Z,287.5
2022-08-17T02:16:37.000Z,287.5
2022-08-17T02:18:44.000Z,287.48
2022-08-17T02:20:10.000Z,287.45
2022-08-17T02:22:17.000Z,287.42
2022-08-17T02:23:43.000Z,287.41
2022-08-17T02:25:49.000Z,287.38
2022-08-17T02:27:16.000Z,287.35
2022-08-17T02:29:22.000Z,287.35
2022-08-17T02:30:48.000Z,287.34
2022-08-17T02:33:08.000Z,287.33
2022-08-17T02:34:35.000Z,287.34
2022-08-17T02:36:41.000Z,287.31
2022-08-17T02:38:08.000Z,287.3
2022-08-17T02:40:14.000Z,287.3
2022-08-17T02:41:41.000Z,287.28
2022-08-17T02:43:47.000Z,287.27
2022-08-17T02:46:38.000Z,287.27
2022-08-17T02:48:04.000Z,287.27
2022-08-17T02:50:11.000Z,287.26
2022-08-17T02:51:37.000Z,287.24
2022-08-17T02:53:43.000Z,287.23
2022-08-17T02:55:10.000Z,287.2
2022-08-17T02:57:16.000Z,287.18
2022-08-17T02:58:42.000Z,287.16
2022-08-17T03:00:48.000Z,287.14
2022-08-17T03:02:15.000Z,287.11
2022-08-17T03:04:21.000Z,287.08
2022-08-17T03:05:48.000Z,287.05
2022-08-17T03:07:54.000Z,287.02
2022-08-17T03:09:20.000Z,287
2022-08-17T03:11:26.000Z,287
2022-08-17T03:12:53.000Z,286.97
2022-08-17T03:14:59.000Z,286.97
2022-08-17T03:16:25.000Z,286.94
2022-08-17T03:18:31.000Z,286.91
2022-08-17T03:19:58.000Z,286.87
2022-08-17T03:22:04.000Z,286.83
2022-08-17T03:25:39.000Z,286.8
2022-08-17T03:27:05.000Z,286.79
2022-08-17T03:29:11.000Z,286.77
2022-08-17T03:30:38.000Z,286.77
2022-08-17T03:32:44.000Z,286.76
2022-08-17T03:34:10.000Z,286.75
2022-08-17T03:36:16.000Z,286.75
2022-08-17T03:37:43.000Z,286.75
2022-08-17T03:39:49.000Z,286.73
2022-08-17T03:41:16.000Z,286.73
2022-08-17T03:43:22.000Z,286.7
2022-08-17T03:44:48.000Z,286.7
2022-08-17T03:46:54.000Z,286.7
2022-08-17T03:48:21.000Z,286.7
2022-08-17T03:50:27.000Z,286.68
2022-08-17T03:51:53.000Z,286.66
2022-08-17T03:53:59.000Z,286.65
2022-08-17T03:55:26.000Z,286.66
2022-08-17T03:57:42.000Z,286.66
2022-08-17T03:59:08.000Z,286.66
2022-08-17T04:01:26.000Z,286.66
2022-08-17T04:04:18.000Z,286.65
2022-08-17T04:05:45.000Z,286.63
2022-08-17T04:07:51.000Z,286.63
2022-08-17T04:09:17.000Z,286.63
2022-08-17T04:11:24.000Z,286.62
2022-08-17T04:12:51.000Z,286.62
2022-08-17T04:14:57.000Z,286.62
2022-08-17T04:16:24.000Z,286.59
2022-08-17T04:18:30.000Z,286.58
2022-08-17T04:20:00.000Z,286.58
2022-08-17T04:22:06.000Z,286.58
2022-08-17T04:23:32.000Z,286.58
2022-08-17T04:25:40.000Z,286.58
2022-08-17T04:27:06.000Z,286.58
2022-08-17T04:29:12.000Z,286.58
2022-08-17T04:30:39.000Z,286.58
2022-08-17T04:32:45.000Z,286.61
2022-08-17T04:34:32.000Z,286.62
2022-08-17T04:36:39.000Z,286.66
2022-08-17T04:38:05.000Z,286.68
2022-08-17T04:40:11.000Z,286.7
2022-08-17T04:43:03.000Z,286.72
2022-08-17T04:44:29.000Z,286.76
2022-08-17T04:46:44.000Z,286.76
2022-08-17T04:48:10.000Z,286.77
2022-08-17T04:50:16.000Z,286.8
2022-08-17T04:51:43.000Z,286.82
2022-08-17T04:54:00.000Z,286.84
2022-08-17T04:55:27.000Z,286.9
2022-08-17T04:57:33.000Z,286.93
2022-08-17T04:59:08.000Z,286.95
2022-08-17T05:01:14.000Z,287
2022-08-17T05:02:41.000Z,287.02
2022-08-17T05:04:56.000Z,287.08
2022-08-17T05:06:23.000Z,287.11
2022-08-17T05:08:29.000Z,287.15
2022-08-17T05:09:55.000Z,287.21
2022-08-17T05:12:01.000Z,287.24
2022-08-17T05:13:28.000Z,287.3
2022-08-17T05:15:34.000Z,287.37
2022-08-17T05:17:02.000Z,287.42
2022-08-17T05:19:16.000Z,287.46
2022-08-17T05:22:08.000Z,287.5
2022-08-17T05:23:35.000Z,287.53
2022-08-17T05:25:49.000Z,287.56
2022-08-17T05:27:16.000Z,287.63
2022-08-17T05:29:25.000Z,287.71
2022-08-17T05:31:18.000Z,287.81
2022-08-17T05:33:24.000Z,287.88
2022-08-17T05:34:50.000Z,287.96
2022-08-17T05:36:56.000Z,288.03
2022-08-17T05:38:23.000Z,288.1
2022-08-17T05:40:29.000Z,288.14
2022-08-17T05:41:59.000Z,288.21
2022-08-17T05:44:05.000Z,288.25
2022-08-17T05:45:32.000Z,288.29
2022-08-17T05:48:01.000Z,288.36
2022-08-17T05:49:28.000Z,288.43
2022-08-17T05:51:34.000Z,288.46
2022-08-17T05:53:00.000Z,288.53
2022-08-17T05:55:07.000Z,288.58
2022-08-17T05:56:33.000Z,288.67
2022-08-17T05:58:39.000Z,288.7
2022-08-17T06:01:30.000Z,288.79
2022-08-17T06:02:57.000Z,288.85
2022-08-17T06:05:03.000Z,288.89
2022-08-17T06:06:30.000Z,288.93
2022-08-17T06:08:37.000Z,289
2022-08-17T06:10:04.000Z,289.03
2022-08-17T06:12:11.000Z,289.08
2022-08-17T06:13:46.000Z,289.16
2022-08-17T06:15:52.000Z,289.23
2022-08-17T06:17:18.000Z,289.35
2022-08-17T06:19:25.000Z,289.44
2022-08-17T06:20:51.000Z,289.58
2022-08-17T06:22:57.000Z,289.7
2022-08-17T06:24:24.000Z,289.83
2022-08-17T06:26:30.000Z,289.97
2022-08-17T06:28:08.000Z,290.08
2022-08-17T06:30:19.000Z,290.2
2022-08-17T06:31:46.000Z,290.34
2022-08-17T06:33:52.000Z,290.42
2022-08-17T06:35:18.000Z,290.56
2022-08-17T06:37:24.000Z,290.66
2022-08-17T06:40:16.000Z,290.82
2022-08-17T06:41:42.000Z,290.89
2022-08-17T06:43:48.000Z,290.92
2022-08-17T06:45:15.000Z,291.03
2022-08-17T06:47:21.000Z,291.14
2022-08-17T06:48:55.000Z,291.27
2022-08-17T06:52:34.000Z,291.36
2022-08-17T06:54:51.000Z,291.66
2022-08-17T06:56:18.000Z,291.79
2022-08-17T06:58:24.000Z,291.92
2022-08-17T06:59:56.000Z,292.12
2022-08-17T07:02:02.000Z,292.3
2022-08-17T07:03:29.000Z,292.4
2022-08-17T07:05:35.000Z,292.36
2022-08-17T07:07:05.000Z,292.32
2022-08-17T07:09:11.000Z,292.32
2022-08-17T07:10:37.000Z,292.33
2022-08-17T07:12:44.000Z,292.36
2022-08-17T07:14:10.000Z,292.4
2022-08-17T07:16:23.000Z,292.47
2022-08-17T07:17:49.000Z,292.53
2022-08-17T07:19:55.000Z,292.61
2022-08-17T07:21:22.000Z,292.72
2022-08-17T07:23:32.000Z,292.83
2022-08-17T07:24:59.000Z,292.89
2022-08-17T07:27:05.000Z,292.96
2022-08-17T07:28:31.000Z,293.08
2022-08-17T07:30:38.000Z,293.16
2022-08-17T07:33:38.000Z,293.33
2022-08-17T07:35:05.000Z,293.41
2022-08-17T07:37:11.000Z,293.48
2022-08-17T07:38:37.000Z,293.56
2022-08-17T07:40:44.000Z,293.6
2022-08-17T07:42:10.000Z,293.67
2022-08-17T07:44:16.000Z,293.78
2022-08-17T07:45:43.000Z,293.95
2022-08-17T07:47:49.000Z,294.08
2022-08-17T07:49:16.000Z,294.13
2022-08-17T07:51:22.000Z,294.21
2022-08-17T07:52:49.000Z,294.3
2022-08-17T07:54:58.000Z,294.37
2022-08-17T07:56:24.000Z,294.44
2022-08-17T07:58:40.000Z,294.49
2022-08-17T08:00:06.000Z,294.61
2022-08-17T08:02:22.000Z,294.71
2022-08-17T08:03:55.000Z,294.81
2022-08-17T08:06:01.000Z,294.88
2022-08-17T08:07:28.000Z,294.92
2022-08-17T08:09:34.000Z,294.99
2022-08-17T08:12:25.000Z,295.09
2022-08-17T08:13:59.000Z,295.15
2022-08-17T08:16:06.000Z,295.24
2022-08-17T08:17:32.000Z,295.32
2022-08-17T08:19:38.000Z,295.38
2022-08-17T08:21:05.000Z,295.43
2022-08-17T08:23:11.000Z,295.47
2022-08-17T08:24:38.000Z,295.51
2022-08-17T08:26:44.000Z,295.56
2022-08-17T08:28:10.000Z,295.6
2022-08-17T08:30:16.000Z,295.63
2022-08-17T08:31:43.000Z,295.67
2022-08-17T08:33:50.000Z,295.7
2022-08-17T08:35:16.000Z,295.71
2022-08-17T08:37:22.000Z,295.72
2022-08-17T08:39:01.000Z,295.78
2022-08-17T08:41:08.000Z,295.82
2022-08-17T08:42:34.000Z,295.86
2022-08-17T08:44:40.000Z,295.9
2022-08-17T08:46:30.000Z,295.97
2022-08-17T08:48:36.000Z,296.03
2022-08-17T08:51:49.000Z,296.18
2022-08-17T08:53:18.000Z,296.3
2022-08-17T08:55:24.000Z,296.39
2022-08-17T08:56:50.000Z,296.5
2022-08-17T08:59:28.000Z,296.62
2022-08-17T09:00:55.000Z,296.72
2022-08-17T09:03:01.000Z,296.85
2022-08-17T09:04:28.000Z,296.95
2022-08-17T09:06:34.000Z,297.06
2022-08-17T09:08:06.000Z,297.18
2022-08-17T09:10:12.000Z,297.3
2022-08-17T09:11:39.000Z,297.48
2022-08-17T09:14:09.000Z,297.63
2022-08-17T09:15:54.000Z,297.74
2022-08-17T09:18:00.000Z,297.84
2022-08-17T09:20:28.000Z,297.99
2022-08-17T09:22:34.000Z,298.1
2022-08-17T09:24:01.000Z,298.22
2022-08-17T09:26:07.000Z,298.33
2022-08-17T09:27:34.000Z,298.42
2022-08-17T09:29:40.000Z,298.52
2022-08-17T09:32:31.000Z,298.65
2022-08-17T09:33:58.000Z,298.74
2022-08-17T09:36:04.000Z,298.84
2022-08-17T09:37:30.000Z,298.91
2022-08-17T09:39:36.000Z,298.98
2022-08-17T09:41:03.000Z,299.02
2022-08-17T09:43:09.000Z,299.07
2022-08-17T09:44:36.000Z,299.1
2022-08-17T09:46:42.000Z,299.13
2022-08-17T09:48:09.000Z,299.18
2022-08-17T09:50:15.000Z,299.17
2022-08-17T09:51:41.000Z,299.18
2022-08-17T09:53:47.000Z,299.15
2022-08-17T09:55:16.000Z,299.15
2022-08-17T09:57:22.000Z,299.17
2022-08-17T09:58:56.000Z,299.17
2022-08-17T10:01:03.000Z,299.24
2022-08-17T10:02:30.000Z,299.28
2022-08-17T10:04:36.000Z,299.32
2022-08-17T10:06:04.000Z,299.36
2022-08-17T10:08:12.000Z,299.38
2022-08-17T10:11:04.000Z,299.4
2022-08-17T10:12:30.000Z,299.42
2022-08-17T10:14:36.000Z,299.4
2022-08-17T10:16:10.000Z,299.36
2022-08-17T10:18:17.000Z,299.33
2022-08-17T10:19:43.000Z,299.31
2022-08-17T10:21:50.000Z,299.28
2022-08-17T10:23:28.000Z,299.22
2022-08-17T10:25:34.000Z,299.21
2022-08-17T10:27:21.000Z,299.17
2022-08-17T10:29:27.000Z,299.13
2022-08-17T10:30:55.000Z,299.11
2022-08-17T10:33:38.000Z,299.11
2022-08-17T10:35:05.000Z,299.11
2022-08-17T10:37:11.000Z,299.11
2022-08-17T10:38:38.000Z,299.1
2022-08-17T10:40:44.000Z,299.05
2022-08-17T10:42:10.000Z,299
2022-08-17T10:44:17.000Z,298.95
2022-08-17T10:46:06.000Z,298.88
2022-08-17T10:48:36.000Z,298.81
2022-08-17T10:51:28.000Z,298.78
2022-08-17T10:52:54.000Z,298.74
2022-08-17T10:55:00.000Z,298.7
2022-08-17T10:56:27.000Z,298.67
2022-08-17T10:58:33.000Z,298.65
2022-08-17T10:59:59.000Z,298.65
2022-08-17T11:02:06.000Z,298.65
2022-08-17T11:03:32.000Z,298.66
2022-08-17T11:05:38.000Z,298.69
2022-08-17T11:07:10.000Z,298.72
2022-08-17T11:09:16.000Z,298.77
2022-08-17T11:10:42.000Z,298.82
2022-08-17T11:12:49.000Z,298.89
2022-08-17T11:14:15.000Z,298.99
2022-08-17T11:16:21.000Z,299.05
2022-08-17T11:17:48.000Z,299.13
2022-08-17T11:19:54.000Z,299.2
2022-08-17T11:21:21.000Z,299.28
2022-08-17T11:23:27.000Z,299.33
2022-08-17T11:24:53.000Z,299.39
2022-08-17T11:27:00.000Z,299.42
2022-08-17T11:29:52.000Z,299.43
2022-08-17T11:31:27.000Z,299.42
2022-08-17T11:33:45.000Z,299.39
2022-08-17T11:35:12.000Z,299.38
2022-08-17T11:37:18.000Z,299.38
2022-08-17T11:38:44.000Z,299.4
2022-08-17T11:40:51.000Z,299.46
2022-08-17T11:42:17.000Z,299.52
2022-08-17T11:44:23.000Z,299.58
2022-08-17T11:45:50.000Z,299.61
2022-08-17T11:47:56.000Z,299.61
2022-08-17T11:49:53.000Z,299.61
2022-08-17T11:52:00.000Z,299.57
2022-08-17T11:53:27.000Z,299.54
2022-08-17T11:55:33.000Z,299.52
2022-08-17T11:57:05.000Z,299.45
2022-08-17T11:59:11.000Z,299.4
2022-08-17T12:00:38.000Z,299.39
2022-08-17T12:02:44.000Z,299.39
2022-08-17T12:04:14.000Z,299.43
2022-08-17T12:06:21.000Z,299.49
2022-08-17T12:09:12.000Z,299.64
2022-08-17T12:10:39.000Z,299.74
2022-08-17T12:12:45.000Z,299.82
2022-08-17T12:14:13.000Z,299.93
2022-08-17T12:16:26.000Z,300.03
2022-08-17T12:17:52.000Z,300.13
2022-08-17T12:19:59.000Z,300.18
2022-08-17T12:21:29.000Z,300.22
2022-08-17T12:23:35.000Z,300.23
2022-08-17T12:25:02.000Z,300.25
2022-08-17T12:27:08.000Z,300.28
2022-08-17T12:28:34.000Z,300.29
2022-08-17T12:30:41.000Z,300.32
2022-08-17T12:32:07.000Z,300.29
2022-08-17T12:34:13.000Z,300.26
2022-08-17T12:35:40.000Z,300.25
2022-08-17T12:37:46.000Z,300.25
2022-08-17T12:39:13.000Z,300.22
2022-08-17T12:41:27.000Z,300.22
2022-08-17T12:42:53.000Z,300.19
2022-08-17T12:45:00.000Z,300.13
2022-08-17T12:47:50.000Z,300.1
2022-08-17T12:49:17.000Z,300.06
2022-08-17T12:51:23.000Z,300.02
2022-08-17T12:52:50.000Z,300.02
2022-08-17T12:54:58.000Z,299.99
2022-08-17T12:56:25.000Z,299.99
2022-08-17T12:58:31.000Z,299.97
2022-08-17T12:59:58.000Z,299.93
2022-08-17T13:02:04.000Z,299.89
2022-08-17T13:03:30.000Z,299.84
2022-08-17T13:05:42.000Z,299.78
2022-08-17T13:07:09.000Z,299.75
2022-08-17T13:09:15.000Z,299.72
2022-08-17T13:10:41.000Z,299.72
2022-08-17T13:12:47.000Z,299.74
2022-08-17T13:14:14.000Z,299.72
2022-08-17T13:16:20.000Z,299.77
2022-08-17T13:17:47.000Z,299.75
2022-08-17T13:19:53.000Z,299.78
2022-08-17T13:21:19.000Z,299.81
2022-08-17T13:23:26.000Z,299.82
2022-08-17T13:26:17.000Z,299.84
2022-08-17T13:27:43.000Z,299.84
2022-08-17T13:29:50.000Z,299.85
2022-08-17T13:31:19.000Z,299.85
2022-08-17T13:33:25.000Z,299.89
2022-08-17T13:35:11.000Z,299.96
2022-08-17T13:37:23.000Z,299.95
2022-08-17T13:38:50.000Z,299.88
2022-08-17T13:40:56.000Z,299.89
2022-08-17T13:42:22.000Z,299.95
2022-08-17T13:44:29.000Z,299.99
2022-08-17T13:45:55.000Z,300.02
2022-08-17T13:48:01.000Z,300.06
2022-08-17T13:49:28.000Z,300.1
2022-08-17T13:51:55.000Z,300.17
2022-08-17T13:53:21.000Z,300.26
2022-08-17T13:55:28.000Z,300.43
2022-08-17T13:56:54.000Z,300.53
2022-08-17T13:59:00.000Z,300.78
2022-08-17T14:00:27.000Z,301.03
2022-08-17T14:02:33.000Z,301.08
2022-08-17T14:05:24.000Z,301.5
2022-08-17T14:06:51.000Z,301.82
2022-08-17T14:09:00.000Z,301.83
2022-08-17T14:10:26.000Z,301.92
2022-08-17T14:12:32.000Z,301.91
2022-08-17T14:13:59.000Z,301.95
2022-08-17T14:16:05.000Z,301.72
2022-08-17T14:17:32.000Z,301.53
2022-08-17T14:19:44.000Z,301.38
2022-08-17T14:21:11.000Z,301.32
2022-08-17T14:23:17.000Z,301.29
2022-08-17T14:24:43.000Z,301.22
2022-08-17T14:26:51.000Z,301.19
2022-08-17T14:28:17.000Z,301.22
2022-08-17T14:30:23.000Z,301.38
2022-08-17T14:31:50.000Z,301.47
2022-08-17T14:34:00.000Z,301.61
2022-08-17T14:35:27.000Z,301.59
2022-08-17T14:37:33.000Z,301.62
2022-08-17T14:39:00.000Z,301.71
2022-08-17T14:41:06.000Z,301.91
2022-08-17T14:43:57.000Z,302.29
2022-08-17T14:45:24.000Z,302.54
2022-08-17T14:47:39.000Z,302.74
2022-08-17T14:49:05.000Z,303.02
2022-08-17T14:51:11.000Z,303.2
2022-08-17T14:52:38.000Z,303.31
2022-08-17T14:54:44.000Z,303.42
2022-08-17T14:56:12.000Z,303.19
2022-08-17T14:58:18.000Z,302.94
2022-08-17T14:59:44.000Z,302.72
2022-08-17T15:01:51.000Z,302.63
2022-08-17T15:03:17.000Z,302.42
2022-08-17T15:05:24.000Z,302.4
2022-08-17T15:08:56.000Z,302.42
2022-08-17T15:10:22.000Z,302.48
2022-08-17T15:12:32.000Z,302.54
2022-08-17T15:14:00.000Z,302.59
2022-08-17T15:16:06.000Z,302.59
2022-08-17T15:17:33.000Z,302.54
2022-08-17T15:20:00.000Z,302.51
2022-08-17T15:22:52.000Z,302.34
2022-08-17T15:24:19.000Z,302.2
2022-08-17T15:26:25.000Z,302.23
2022-08-17T15:27:52.000Z,302.26
2022-08-17T15:29:59.000Z,302.17
2022-08-17T15:31:25.000Z,302.22
2022-08-17T15:33:38.000Z,302.37
2022-08-17T15:35:04.000Z,302.59
2022-08-17T15:37:11.000Z,302.69
2022-08-17T15:38:37.000Z,302.79
2022-08-17T15:40:43.000Z,302.93
2022-08-17T15:42:10.000Z,302.9
2022-08-17T15:44:16.000Z,302.83
2022-08-17T15:45:43.000Z,302.8
2022-08-17T15:47:49.000Z,302.87
2022-08-17T15:49:16.000Z,303.05
2022-08-17T15:51:22.000Z,303.17
2022-08-17T15:52:48.000Z,303.35
2022-08-17T15:54:55.000Z,303.55
2022-08-17T15:56:21.000Z,303.6
2022-08-17T15:58:27.000Z,303.63
2022-08-17T16:01:24.000Z,303.77
2022-08-17T16:04:42.000Z,303.95
2022-08-17T16:06:50.000Z,304.02
2022-08-17T16:08:16.000Z,303.99
2022-08-17T16:10:27.000Z,303.87
2022-08-17T16:12:02.000Z,303.95
2022-08-17T16:14:08.000Z,303.99
2022-08-17T16:15:39.000Z,303.97
2022-08-17T16:17:46.000Z,303.98
2022-08-17T16:19:12.000Z,303.88
2022-08-17T16:21:18.000Z,303.87
2022-08-17T16:22:45.000Z,303.88
2022-08-17T16:24:51.000Z,303.85
2022-08-17T16:26:24.000Z,303.76
2022-08-17T16:28:30.000Z,303.73
2022-08-17T16:30:02.000Z,303.81
2022-08-17T16:32:08.000Z,303.91
2022-08-17T16:33:35.000Z,303.87
2022-08-17T16:35:41.000Z,303.91
2022-08-17T16:37:08.000Z,303.99
2022-08-17T16:39:14.000Z,304.08
2022-08-17T16:42:05.000Z,304.12
2022-08-17T16:43:32.000Z,304.17
2022-08-17T16:45:38.000Z,304.24
2022-08-17T16:47:04.000Z,304.26
2022-08-17T16:49:11.000Z,304.3
2022-08-17T16:51:02.000Z,304.34
2022-08-17T16:53:10.000Z,304.31
2022-08-17T16:54:37.000Z,304.35
2022-08-17T16:56:43.000Z,304.42
2022-08-17T16:58:10.000Z,304.52
2022-08-17T17:00:16.000Z,304.53
2022-08-17T17:01:42.000Z,304.55
2022-08-17T17:03:49.000Z,304.55
2022-08-17T17:05:15.000Z,304.49
2022-08-17T17:07:21.000Z,304.48
2022-08-17T17:08:48.000Z,304.41
2022-08-17T17:10:54.000Z,304.35
2022-08-17T17:12:21.000Z,304.33
2022-08-17T17:15:07.000Z,304.08
2022-08-17T17:16:34.000Z,304.01
2022-08-17T17:18:40.000Z,303.74
2022-08-17T17:21:31.000Z,303.46
2022-08-17T17:22:58.000Z,303.27
2022-08-17T17:25:04.000Z,303.05
2022-08-17T17:26:30.000Z,302.9
2022-08-17T17:28:37.000Z,302.76
2022-08-17T17:30:03.000Z,302.65
2022-08-17T17:32:09.000Z,302.59
2022-08-17T17:33:36.000Z,302.51
2022-08-17T17:35:42.000Z,302.48
2022-08-17T17:37:09.000Z,302.37
2022-08-17T17:39:15.000Z,302.3
2022-08-17T17:40:41.000Z,302.23
2022-08-17T17:42:47.000Z,302.16
2022-08-17T17:44:14.000Z,302.11
2022-08-17T17:46:24.000Z,302.05
2022-08-17T17:47:55.000Z,301.98
2022-08-17T17:50:01.000Z,301.94
2022-08-17T17:51:28.000Z,301.8
2022-08-17T17:54:15.000Z,301.71
2022-08-17T17:55:42.000Z,301.58
2022-08-17T17:57:48.000Z,301.5
2022-08-17T18:00:39.000Z,301.4
2022-08-17T18:02:06.000Z,301.26
2022-08-17T18:04:12.000Z,301.17
2022-08-17T18:05:47.000Z,301.11
2022-08-17T18:07:53.000Z,301.04
2022-08-17T18:09:19.000Z,300.96
2022-08-17T18:11:27.000Z,300.89
2022-08-17T18:13:01.000Z,300.78
2022-08-17T18:15:07.000Z,300.75
2022-08-17T18:16:34.000Z,300.65
2022-08-17T18:18:40.000Z,300.57
2022-08-17T18:20:07.000Z,300.43
2022-08-17T18:22:13.000Z,300.37
2022-08-17T18:23:41.000Z,300.3
2022-08-17T18:25:47.000Z,300.22
2022-08-17T18:27:13.000Z,300.1
2022-08-17T18:29:20.000Z,300.03
2022-08-17T18:30:46.000Z,299.93
2022-08-17T18:32:52.000Z,299.82
2022-08-17T18:34:19.000Z,299.72
2022-08-17T18:38:25.000Z,299.56
2022-08-17T18:38:59.000Z,299.35
2022-08-17T18:41:44.000Z,299.14
2022-08-17T18:43:10.000Z,299
2022-08-17T18:45:16.000Z,298.88
2022-08-17T18:46:43.000Z,298.75
2022-08-17T18:48:49.000Z,298.66
2022-08-17T18:50:16.000Z,298.49
2022-08-17T18:52:22.000Z,298.37
2022-08-17T18:53:48.000Z,298.22
2022-08-17T18:55:55.000Z,298.12
2022-08-17T18:57:21.000Z,297.95
2022-08-17T18:59:27.000Z,297.85
2022-08-17T19:00:54.000Z,297.67
2022-08-17T19:03:00.000Z,297.55
2022-08-17T19:04:26.000Z,297.44
2022-08-17T19:06:38.000Z,297.26
2022-08-17T19:08:05.000Z,297.18
2022-08-17T19:10:13.000Z,297.08
2022-08-17T19:11:40.000Z,297.02
2022-08-17T19:13:46.000Z,296.93
2022-08-17T19:15:13.000Z,296.78
2022-08-17T19:17:19.000Z,296.71
2022-08-17T19:20:11.000Z,296.61
2022-08-17T19:21:39.000Z,296.5
2022-08-17T19:23:45.000Z,296.4
2022-08-17T19:25:20.000Z,296.3
2022-08-17T19:27:28.000Z,296.23
2022-08-17T19:29:08.000Z,296.19
2022-08-17T19:31:15.000Z,296.14
2022-08-17T19:32:42.000Z,296.01
2022-08-17T19:34:48.000Z,295.88
2022-08-17T19:36:14.000Z,295.78
2022-08-17T19:38:21.000Z,295.7
2022-08-17T19:39:47.000Z,295.63
2022-08-17T19:41:53.000Z,295.54
2022-08-17T19:43:20.000Z,295.42
2022-08-17T19:45:26.000Z,295.32
2022-08-17T19:46:53.000Z,295.22
2022-08-17T19:49:04.000Z,295.15
2022-08-17T19:50:30.000Z,295
2022-08-17T19:52:37.000Z,294.92
2022-08-17T19:54:03.000Z,294.85
2022-08-17T19:56:12.000Z,294.77
2022-08-17T19:59:04.000Z,294.6
2022-08-17T20:00:30.000Z,294.44
2022-08-17T20:02:37.000Z,294.38
2022-08-17T20:04:03.000Z,294.27
2022-08-17T20:06:09.000Z,294.2
2022-08-17T20:07:40.000Z,294.09
2022-08-17T20:09:46.000Z,294.05
2022-08-17T20:11:12.000Z,293.92
2022-08-17T20:13:19.000Z,293.85
2022-08-17T20:15:00.000Z,293.76
2022-08-17T20:17:06.000Z,293.67
2022-08-17T20:18:32.000Z,293.59
2022-08-17T20:20:38.000Z,293.5
2022-08-17T20:22:07.000Z,293.47
2022-08-17T20:24:13.000Z,293.47
2022-08-17T20:25:39.000Z,293.45
2022-08-17T20:27:46.000Z,293.43
2022-08-17T20:29:16.000Z,293.4
2022-08-17T20:31:22.000Z,293.37
2022-08-17T20:32:52.000Z,293.31
2022-08-17T20:34:59.000Z,293.24
2022-08-17T20:37:50.000Z,293.13
2022-08-17T20:39:16.000Z,293.11
2022-08-17T20:41:23.000Z,293.03
2022-08-17T20:42:49.000Z,293
2022-08-17T20:44:55.000Z,292.97
2022-08-17T20:46:22.000Z,292.9
2022-08-17T20:48:28.000Z,292.85
2022-08-17T20:50:05.000Z,292.73
2022-08-17T20:53:58.000Z,292.57
2022-08-17T20:56:07.000Z,292.53
2022-08-17T20:57:33.000Z,292.51
2022-08-17T20:59:40.000Z,292.46
2022-08-17T21:01:11.000Z,292.41
2022-08-17T21:03:17.000Z,292.4
2022-08-17T21:04:52.000Z,292.34
2022-08-17T21:06:58.000Z,292.26
2022-08-17T21:08:24.000Z,292.22
2022-08-17T21:10:30.000Z,292.18
2022-08-17T21:11:57.000Z,292.12
2022-08-17T21:15:43.000Z,292.01
2022-08-17T21:17:45.000Z,291.86
2022-08-17T21:19:12.000Z,291.82
2022-08-17T21:21:18.000Z,291.81
2022-08-17T21:22:44.000Z,291.72
2022-08-17T21:24:50.000Z,291.67
2022-08-17T21:26:17.000Z,291.59
2022-08-17T21:28:23.000Z,291.5
2022-08-17T21:30:00.000Z,291.42
2022-08-17T21:32:06.000Z,291.39
2022-08-17T21:33:35.000Z,291.38
2022-08-17T21:35:42.000Z,291.36
2022-08-17T21:37:08.000Z,291.28
2022-08-17T21:39:14.000Z,291.24
2022-08-17T21:40:41.000Z,291.18
2022-08-17T21:42:47.000Z,291.13
2022-08-17T21:44:14.000Z,291.07
2022-08-17T21:46:20.000Z,290.98
2022-08-17T21:47:46.000Z,290.98
2022-08-17T21:49:53.000Z,290.96
2022-08-17T21:51:19.000Z,290.91
2022-08-17T21:53:25.000Z,290.86
2022-08-17T21:56:24.000Z,290.77
2022-08-17T21:57:50.000Z,290.74
2022-08-17T22:00:19.000Z,290.74
2022-08-17T22:01:45.000Z,290.7
2022-08-17T22:03:56.000Z,290.67
2022-08-17T22:05:23.000Z,290.65
2022-08-17T22:07:29.000Z,290.6
2022-08-17T22:08:55.000Z,290.55
2022-08-17T22:11:01.000Z,290.49
2022-08-17T22:12:28.000Z,290.42
2022-08-17T22:14:34.000Z,290.37
2022-08-17T22:16:20.000Z,290.28
2022-08-17T22:18:35.000Z,290.23
2022-08-17T22:20:02.000Z,290.18
2022-08-17T22:22:08.000Z,290.15
2022-08-17T22:23:34.000Z,290.09
2022-08-17T22:25:40.000Z,290.08
2022-08-17T22:27:07.000Z,290.04
2022-08-17T22:29:13.000Z,290.02
2022-08-17T22:30:40.000Z,290.04
2022-08-17T22:32:46.000Z,290.04
2022-08-17T22:35:37.000Z,290.05
2022-08-17T22:37:03.000Z,290.06
2022-08-17T22:39:10.000Z,290.05
2022-08-17T22:40:36.000Z,290.05
2022-08-17T22:42:42.000Z,290.05
2022-08-17T22:44:09.000Z,290.06
2022-08-17T22:46:15.000Z,290.09
2022-08-17T22:47:41.000Z,290.09
2022-08-17T22:49:47.000Z,290.12
2022-08-17T22:51:19.000Z,290.11
2022-08-17T22:53:26.000Z,290.11
2022-08-17T22:54:52.000Z,290.08
2022-08-17T22:56:58.000Z,290.06
2022-08-17T22:58:26.000Z,290.02
2022-08-17T23:00:32.000Z,290
2022-08-17T23:01:58.000Z,289.98
2022-08-17T23:04:04.000Z,289.98
2022-08-17T23:05:31.000Z,290.02
2022-08-17T23:07:37.000Z,290.02
2022-08-17T23:09:04.000Z,290
2022-08-17T23:11:10.000Z,289.98
2022-08-17T23:14:02.000Z,289.93
2022-08-17T23:15:28.000Z,289.87
2022-08-17T23:17:34.000Z,289.81
2022-08-17T23:19:04.000Z,289.73
2022-08-17T23:21:10.000Z,289.7
2022-08-17T23:22:42.000Z,289.7
2022-08-17T23:24:58.000Z,289.66
2022-08-17T23:26:25.000Z,289.61